Time;durP1;ratioP1;P1;durP2;ratioP2;P2;SDS_P1;SDS_P2;PMS_P1;PMS_P2;Temp;Humidity;BMP_temperature;BMP_pressure;BME280_temperature;BME280_humidity;BME280_pressure;Samples;Min_cycle;Max_cycle;Signal;HPM_P1;HPM_P2
2022/05/08 00:01:10;;;;;;;3.93;3.83;;;13.20;99.90;;;;;;5052739;28;20612;-66
2022/05/08 00:03:35;;;;;;;4.80;4.60;;;13.20;99.90;;;;;;5052644;28;20183;-66
2022/05/08 00:06:07;;;;;;;4.83;4.63;;;13.20;99.90;;;;;;5052460;28;20210;-66
2022/05/08 00:08:32;;;;;;;4.57;4.37;;;13.10;99.90;;;;;;5052392;28;20194;-65
2022/05/08 00:10:58;;;;;;;4.67;4.47;;;13.10;99.90;;;;;;5051659;28;20205;-66
2022/05/08 00:13:23;;;;;;;5.00;4.80;;;13.10;99.90;;;;;;5051182;28;20186;-67
2022/05/08 00:15:49;;;;;;;4.80;4.60;;;13.10;99.90;;;;;;5052214;28;20625;-65
2022/05/08 00:18:15;;;;;;;4.23;4.03;;;13.10;99.90;;;;;;5050995;28;20179;-66
2022/05/08 00:20:40;;;;;;;5.00;4.80;;;13.10;99.90;;;;;;5052470;28;20632;-66
2022/05/08 00:23:06;;;;;;;5.00;4.80;;;13.10;99.90;;;;;;5051762;28;20233;-67
2022/05/08 00:25:31;;;;;;;3.87;3.77;;;13.10;99.90;;;;;;5050356;28;20214;-65
2022/05/08 00:27:57;;;;;;;5.03;4.83;;;13.10;99.90;;;;;;5050788;28;20269;-66
2022/05/08 00:30:23;;;;;;;5.40;5.20;;;13.10;99.90;;;;;;5051966;28;20178;-66
2022/05/08 00:32:48;;;;;;;4.50;4.30;;;13.00;99.90;;;;;;5052158;28;20575;-66
2022/05/08 00:35:14;;;;;;;4.33;4.13;;;13.00;99.90;;;;;;5051564;28;20213;-67
2022/05/08 00:37:40;;;;;;;4.50;4.30;;;13.00;99.90;;;;;;5052260;28;20182;-66
2022/05/08 00:40:06;;;;;;;4.83;4.63;;;13.00;99.90;;;;;;5051983;28;20585;-66
2022/05/08 00:42:32;;;;;;;4.60;4.40;;;13.00;99.90;;;;;;5052061;28;20191;-67
2022/05/08 00:44:57;;;;;;;4.43;4.23;;;13.00;99.90;;;;;;5050705;28;20190;-67
2022/05/08 00:47:23;;;;;;;4.63;4.43;;;13.00;99.90;;;;;;5051453;28;20677;-65
2022/05/08 00:49:49;;;;;;;5.07;4.83;;;13.00;99.90;;;;;;5050581;28;20210;-66
2022/05/08 00:52:16;;;;;;;4.37;4.17;;;13.00;99.90;;;;;;5051360;28;20210;-66
2022/05/08 00:54:42;;;;;;;4.97;4.77;;;13.10;99.90;;;;;;5050293;28;20186;-66
2022/05/08 00:57:09;;;;;;;5.27;5.07;;;13.10;99.90;;;;;;5050019;28;20183;-65
2022/05/08 00:59:35;;;;;;;4.30;4.10;;;13.10;99.90;;;;;;5051122;28;20195;-66
2022/05/08 01:02:01;;;;;;;4.50;4.30;;;13.20;99.90;;;;;;5051120;28;20260;-67
2022/05/08 01:04:26;;;;;;;4.33;4.13;;;13.30;99.90;;;;;;5050994;28;20269;-67
2022/05/08 01:06:52;;;;;;;5.37;5.17;;;13.30;99.90;;;;;;5051400;28;20638;-65
2022/05/08 01:09:18;;;;;;;5.30;5.10;;;13.40;99.90;;;;;;5050050;28;20202;-66
2022/05/08 01:11:44;;;;;;;5.00;4.80;;;13.50;99.90;;;;;;5049003;28;20653;-66
2022/05/08 01:14:10;;;;;;;5.97;5.77;;;13.60;99.90;;;;;;5051420;28;20193;-65
2022/05/08 01:16:35;;;;;;;5.47;5.27;;;13.60;99.90;;;;;;5051393;28;20688;-66
2022/05/08 01:19:01;;;;;;;6.63;6.17;;;13.60;99.90;;;;;;5050131;28;20240;-67
2022/05/08 01:21:39;;;;;;;4.47;4.27;;;13.70;99.90;;;;;;5051694;28;20174;-66
2022/05/08 01:24:06;;;;;;;5.13;4.90;;;13.70;99.90;;;;;;5051124;28;20600;-67
2022/05/08 01:26:31;;;;;;;4.77;4.57;;;13.80;99.90;;;;;;5051328;28;20285;-66
2022/05/08 01:28:57;;;;;;;4.23;4.03;;;13.80;99.90;;;;;;5051213;28;20237;-66
2022/05/08 01:31:23;;;;;;;4.90;4.70;;;13.90;99.90;;;;;;5050534;28;20213;-66
2022/05/08 01:33:48;;;;;;;4.73;4.53;;;13.90;99.90;;;;;;5051014;28;20181;-66
2022/05/08 01:36:14;;;;;;;5.70;5.50;;;13.90;99.90;;;;;;5054690;28;20644;-66
2022/05/08 01:38:40;;;;;;;5.87;5.57;;;14.00;99.90;;;;;;5056155;28;20210;-67
2022/05/08 01:41:05;;;;;;;4.40;4.20;;;14.00;99.90;;;;;;5058145;28;20185;-66
2022/05/08 01:43:36;;;;;;;5.10;4.90;;;14.00;99.90;;;;;;5056544;28;20182;-65
2022/05/08 01:46:06;;;;;;;5.47;5.13;;;14.10;99.90;;;;;;5057686;28;20705;-67
2022/05/08 01:48:32;;;;;;;4.77;4.57;;;14.10;99.90;;;;;;5057872;28;20567;-67
2022/05/08 01:51:00;;;;;;;4.27;4.07;;;14.10;99.90;;;;;;5057899;28;20198;-67
2022/05/08 01:53:28;;;;;;;4.37;4.17;;;14.20;99.90;;;;;;5057284;28;20206;-67
2022/05/08 01:55:55;;;;;;;5.00;4.80;;;14.20;99.90;;;;;;5056806;28;20174;-65
2022/05/08 01:58:22;;;;;;;4.97;4.77;;;14.20;99.90;;;;;;5056490;28;20213;-65
2022/05/08 02:00:48;;;;;;;5.57;5.27;;;14.20;99.90;;;;;;5057363;28;20433;-66
2022/05/08 02:03:14;;;;;;;5.17;4.97;;;14.20;99.90;;;;;;5057786;28;20232;-67
2022/05/08 02:05:42;;;;;;;4.70;4.50;;;14.10;99.90;;;;;;5054408;28;20183;-66
2022/05/08 02:08:08;;;;;;;4.50;4.30;;;14.00;99.90;;;;;;5057823;28;20538;-66
2022/05/08 02:10:34;;;;;;;3.93;3.83;;;14.10;99.90;;;;;;5056531;28;20213;-66
2022/05/08 02:13:00;;;;;;;3.90;3.80;;;14.00;99.90;;;;;;5057798;28;20206;-66
2022/05/08 02:15:29;;;;;;;6.57;6.17;;;14.00;99.90;;;;;;5057164;28;20181;-65
2022/05/08 02:17:58;;;;;;;4.07;3.97;;;13.90;99.90;;;;;;5057676;28;20232;-67
2022/05/08 02:20:23;;;;;;;5.57;5.27;;;13.90;99.90;;;;;;5057505;28;20229;-66
2022/05/08 02:22:49;;;;;;;4.37;4.17;;;14.00;99.90;;;;;;5056462;28;20599;-66
2022/05/08 02:25:15;;;;;;;5.83;5.53;;;14.00;99.90;;;;;;5055765;28;20194;-67
2022/05/08 02:27:41;;;;;;;5.57;5.13;;;13.90;99.90;;;;;;5055319;28;20178;-66
2022/05/08 02:30:09;;;;;;;4.83;4.53;;;13.80;99.90;;;;;;5057138;28;20205;-68
2022/05/08 02:32:35;;;;;;;3.80;3.70;;;13.80;99.90;;;;;;5057538;28;20660;-67
2022/05/08 02:35:01;;;;;;;5.03;4.83;;;13.70;99.90;;;;;;5055700;28;20441;-67
2022/05/08 02:37:27;;;;;;;4.17;3.97;;;13.70;99.90;;;;;;5057510;28;20628;-66
2022/05/08 02:39:53;;;;;;;4.60;4.30;;;13.70;99.90;;;;;;5055673;28;20609;-65
2022/05/08 02:42:19;;;;;;;4.70;4.50;;;13.70;99.90;;;;;;5057105;28;20206;-66
2022/05/08 02:44:44;;;;;;;4.40;4.20;;;13.70;99.90;;;;;;5057170;28;20178;-67
2022/05/08 02:47:10;;;;;;;3.73;3.63;;;13.70;99.90;;;;;;5054168;28;20272;-66
2022/05/08 02:49:35;;;;;;;5.50;5.20;;;13.60;99.90;;;;;;5054162;28;20207;-68
2022/05/08 02:52:01;;;;;;;4.27;4.07;;;13.50;99.90;;;;;;5053809;28;20530;-67
2022/05/08 02:54:26;;;;;;;4.33;4.13;;;13.50;99.90;;;;;;5053788;28;20171;-67
2022/05/08 02:59:36;;;;;;;3.90;3.80;;;13.30;99.90;;;;;;5053910;28;20198;-67
2022/05/08 03:02:01;;;;;;;4.40;4.10;;;13.30;99.90;;;;;;5053685;28;20183;-67
2022/05/08 03:04:27;;;;;;;4.47;4.27;;;13.20;99.90;;;;;;5053641;28;20179;-67
2022/05/08 03:06:53;;;;;;;5.40;5.20;;;13.20;99.90;;;;;;5053967;28;20178;-68
2022/05/08 03:09:18;;;;;;;4.50;4.30;;;13.20;99.90;;;;;;5053596;28;20203;-67
2022/05/08 03:11:44;;;;;;;3.70;3.60;;;13.20;99.90;;;;;;5053788;28;20210;-68
2022/05/08 03:14:09;;;;;;;4.00;3.90;;;13.30;99.90;;;;;;5052952;28;20181;-67
2022/05/08 03:16:35;;;;;;;4.60;4.40;;;13.30;99.90;;;;;;5053284;28;20209;-68
2022/05/08 03:19:01;;;;;;;4.90;4.70;;;13.30;99.90;;;;;;5053690;28;20289;-67
2022/05/08 03:21:27;;;;;;;4.13;3.93;;;13.20;99.90;;;;;;5051579;28;20633;-68
2022/05/08 03:23:53;;;;;;;4.03;3.87;;;13.20;99.90;;;;;;5053288;28;20190;-66
2022/05/08 03:26:19;;;;;;;4.20;4.00;;;13.10;99.90;;;;;;5052046;28;20178;-68
2022/05/08 03:28:46;;;;;;;3.80;3.70;;;13.10;99.90;;;;;;5051941;28;20194;-67
2022/05/08 03:31:11;;;;;;;3.90;3.80;;;12.90;99.90;;;;;;5053709;28;20217;-68
2022/05/08 03:33:38;;;;;;;6.40;4.63;;;12.80;99.90;;;;;;5053279;28;20178;-68
2022/05/08 03:36:06;;;;;;;4.57;4.37;;;12.70;99.90;;;;;;5052889;28;20206;-68
2022/05/08 03:38:33;;;;;;;4.73;4.53;;;12.60;99.90;;;;;;5053919;28;20311;-67
2022/05/08 03:41:00;;;;;;;5.20;5.00;;;12.50;99.90;;;;;;5053430;28;20647;-67
2022/05/08 03:43:26;;;;;;;3.70;3.60;;;12.40;99.90;;;;;;5053084;28;20232;-67
2022/05/08 03:45:51;;;;;;;4.47;4.27;;;12.30;99.90;;;;;;5052983;28;20187;-67
2022/05/08 03:48:18;;;;;;;4.50;4.30;;;12.20;99.90;;;;;;5052275;28;20186;-68
2022/05/08 03:50:44;;;;;;;4.43;4.23;;;12.20;99.90;;;;;;5052685;28;20171;-67
2022/05/08 03:53:10;;;;;;;3.83;3.73;;;12.20;99.90;;;;;;5051891;28;20183;-67
2022/05/08 03:55:36;;;;;;;4.00;3.90;;;12.20;99.90;;;;;;5052589;28;20170;-68
2022/05/08 03:58:02;;;;;;;4.10;4.00;;;12.10;99.90;;;;;;5052460;28;20717;-68
2022/05/08 04:00:28;;;;;;;4.07;3.93;;;12.10;99.90;;;;;;5051691;28;20186;-67
2022/05/08 04:02:54;;;;;;;3.83;3.73;;;12.10;99.90;;;;;;5052755;28;20633;-67
2022/05/08 04:05:20;;;;;;;6.10;5.80;;;12.10;99.90;;;;;;5052503;28;20175;-66
2022/05/08 04:07:46;;;;;;;4.20;4.00;;;12.10;99.90;;;;;;5052727;28;20186;-68
2022/05/08 04:10:12;;;;;;;5.87;3.90;;;12.20;99.90;;;;;;5052592;28;20194;-67
2022/05/08 04:12:38;;;;;;;4.30;4.10;;;12.20;99.90;;;;;;5051796;28;20203;-66
2022/05/08 04:15:05;;;;;;;4.30;4.10;;;12.20;99.90;;;;;;5052396;28;20186;-66
2022/05/08 04:17:32;;;;;;;4.53;4.33;;;12.20;99.90;;;;;;5052439;28;20174;-68
2022/05/08 04:19:58;;;;;;;4.10;3.90;;;12.30;99.90;;;;;;5052253;28;20191;-66
2022/05/08 04:25:08;;;;;;;4.00;3.90;;;12.20;99.90;;;;;;5050627;28;20296;-67
2022/05/08 04:27:37;;;;;;;8.80;8.13;;;12.20;99.90;;;;;;5051778;28;20700;-68
2022/05/08 04:30:04;;;;;;;4.47;4.27;;;12.20;99.90;;;;;;5050950;28;20205;-68
2022/05/08 04:32:29;;;;;;;4.10;4.00;;;12.20;99.90;;;;;;5052076;28;20241;-68
2022/05/08 04:34:55;;;;;;;5.13;4.93;;;12.20;99.90;;;;;;5051323;28;20260;-67
2022/05/08 04:37:21;;;;;;;4.47;4.27;;;12.30;99.90;;;;;;5051993;28;20181;-67
2022/05/08 04:39:46;;;;;;;4.70;4.50;;;12.30;99.90;;;;;;5051308;28;20238;-66
2022/05/08 04:42:12;;;;;;;5.40;5.10;;;12.30;99.90;;;;;;5051776;28;20628;-68
2022/05/08 04:44:38;;;;;;;6.03;5.73;;;12.20;99.90;;;;;;5052010;28;20224;-68
2022/05/08 04:47:03;;;;;;;4.63;4.43;;;12.20;99.90;;;;;;5051716;28;20179;-67
2022/05/08 04:49:29;;;;;;;4.33;4.13;;;12.30;99.90;;;;;;5054213;28;20228;-67
2022/05/08 04:51:55;;;;;;;4.43;4.23;;;12.40;99.90;;;;;;5071892;28;20263;-67
2022/05/08 04:54:23;;;;;;;6.03;5.73;;;12.50;99.90;;;;;;5071814;28;20178;-67
2022/05/08 04:56:49;;;;;;;4.53;4.33;;;12.40;99.90;;;;;;5071794;28;20174;-68
2022/05/08 04:59:15;;;;;;;4.80;4.50;;;12.50;99.90;;;;;;5055011;28;20240;-68
2022/05/08 05:01:41;;;;;;;4.73;4.53;;;12.50;99.90;;;;;;5051338;28;20205;-67
2022/05/08 05:04:06;;;;;;;4.00;3.90;;;12.60;99.90;;;;;;5051044;28;20210;-68
2022/05/08 05:06:32;;;;;;;3.90;3.80;;;12.60;99.90;;;;;;5051528;28;20206;-67
2022/05/08 05:08:58;;;;;;;4.63;4.43;;;12.70;99.90;;;;;;5051315;28;20203;-67
2022/05/08 05:11:24;;;;;;;4.23;4.03;;;12.80;99.90;;;;;;5051105;28;20694;-67
2022/05/08 05:13:49;;;;;;;3.97;3.87;;;12.80;99.90;;;;;;5051448;28;20183;-67
2022/05/08 05:16:15;;;;;;;6.40;5.90;;;12.90;99.90;;;;;;5049653;28;20177;-67
2022/05/08 05:18:40;;;;;;;3.97;3.87;;;12.80;99.90;;;;;;5051139;28;20679;-67
2022/05/08 05:21:06;;;;;;;3.70;3.60;;;12.90;99.90;;;;;;5051043;28;20239;-67
2022/05/08 05:23:35;;;;;;;4.50;4.30;;;12.80;99.90;;;;;;5051406;28;20167;-67
2022/05/08 05:26:01;;;;;;;3.83;3.73;;;12.70;99.90;;;;;;5049529;28;20248;-67
2022/05/08 05:28:26;;;;;;;3.90;3.80;;;12.80;99.90;;;;;;5051373;28;20186;-67
2022/05/08 05:30:52;;;;;;;4.33;4.13;;;12.80;99.90;;;;;;5051499;28;20199;-67
2022/05/08 05:33:19;;;;;;;4.33;4.13;;;12.80;99.90;;;;;;5049611;28;20674;-67
2022/05/08 05:35:44;;;;;;;4.00;3.80;;;12.90;99.90;;;;;;5051033;28;20662;-67
2022/05/08 05:38:10;;;;;;;3.63;3.53;;;13.00;99.90;;;;;;5049489;28;20289;-67
2022/05/08 05:40:36;;;;;;;4.27;4.07;;;13.00;99.90;;;;;;5051267;28;20643;-67
2022/05/08 05:43:02;;;;;;;3.63;3.53;;;13.00;99.90;;;;;;5050290;28;20554;-67
2022/05/08 05:45:27;;;;;;;4.23;4.03;;;13.00;99.90;;;;;;5049661;28;20179;-67
2022/05/08 05:47:53;;;;;;;4.27;4.07;;;13.00;99.90;;;;;;5051144;28;20183;-66
2022/05/08 05:50:23;;;;;;;3.47;3.37;;;13.00;99.90;;;;;;5050798;28;20182;-67
2022/05/08 05:52:50;;;;;;;4.40;4.20;;;13.00;99.90;;;;;;5051343;28;20230;-68
2022/05/08 05:55:17;;;;;;;3.80;3.70;;;12.90;99.90;;;;;;5050930;28;20191;-68
2022/05/08 05:57:43;;;;;;;3.80;3.70;;;12.80;99.90;;;;;;5049910;28;20561;-67
2022/05/08 06:00:11;;;;;;;3.97;3.80;;;12.80;99.90;;;;;;5049702;28;20198;-67
2022/05/08 06:02:39;;;;;;;4.00;3.80;;;12.90;99.90;;;;;;5050597;28;20179;-66
2022/05/08 06:05:08;;;;;;;3.93;3.73;;;13.00;99.90;;;;;;5050289;28;20709;-67
2022/05/08 06:07:34;;;;;;;4.67;4.37;;;13.00;99.90;;;;;;5050659;28;20544;-67
2022/05/08 06:10:01;;;;;;;4.00;3.80;;;13.00;99.90;;;;;;5050653;28;20187;-68
2022/05/08 06:12:26;;;;;;;4.30;4.10;;;13.10;99.90;;;;;;5050762;28;20237;-68
2022/05/08 06:14:52;;;;;;;4.60;4.40;;;13.30;99.90;;;;;;5050269;28;20195;-67
2022/05/08 06:17:17;;;;;;;4.33;4.13;;;13.40;99.90;;;;;;5049820;28;20265;-65
2022/05/08 06:19:43;;;;;;;4.00;3.90;;;13.70;99.90;;;;;;5050182;28;20249;-66
2022/05/08 06:22:09;;;;;;;4.30;4.10;;;13.70;99.90;;;;;;5050448;28;20671;-67
2022/05/08 06:24:38;;;;;;;3.80;3.70;;;13.70;99.90;;;;;;5053050;28;20262;-68
2022/05/08 06:27:05;;;;;;;4.80;4.60;;;13.80;99.90;;;;;;5054635;28;20174;-67
2022/05/08 06:29:32;;;;;;;4.43;4.23;;;13.80;99.90;;;;;;5054122;28;20222;-68
2022/05/08 06:31:58;;;;;;;6.03;4.73;;;13.80;99.90;;;;;;5053076;28;20544;-67
2022/05/08 06:34:23;;;;;;;4.57;4.37;;;13.80;99.90;;;;;;5053613;28;20224;-66
2022/05/08 06:36:50;;;;;;;4.60;4.40;;;13.70;99.90;;;;;;5054196;28;20171;-67
2022/05/08 06:39:15;;;;;;;3.60;3.50;;;13.80;99.90;;;;;;5053914;28;20207;-68
2022/05/08 06:41:41;;;;;;;3.20;3.10;;;14.10;99.90;;;;;;5052474;28;20186;-67
2022/05/08 06:44:07;;;;;;;4.13;3.93;;;14.20;99.90;;;;;;5051903;28;20190;-67
2022/05/08 06:46:35;;;;;;;3.57;3.47;;;14.30;99.90;;;;;;5054250;28;20171;-67
2022/05/08 06:49:02;;;;;;;4.43;4.23;;;14.10;99.90;;;;;;5062478;28;20194;-66
2022/05/08 06:51:28;;;;;;;3.60;3.50;;;13.90;99.90;;;;;;5073494;28;20194;-66
2022/05/08 06:53:54;;;;;;;4.83;4.60;;;13.70;99.90;;;;;;5073487;28;20227;-67
2022/05/08 06:56:19;;;;;;;4.37;4.17;;;13.70;99.90;;;;;;5056450;28;20175;-67
2022/05/08 07:01:35;;;;;;;3.93;3.77;;;13.80;99.90;;;;;;5058830;28;20273;-67
2022/05/08 07:04:05;;;;;;;4.20;4.00;;;14.00;99.90;;;;;;5053435;28;20257;-67
2022/05/08 07:06:31;;;;;;;3.80;3.70;;;14.40;99.90;;;;;;5053367;28;20178;-67
2022/05/08 07:08:58;;;;;;;4.03;3.87;;;14.60;99.90;;;;;;5053022;28;20199;-67
2022/05/08 07:11:25;;;;;;;3.43;3.30;;;14.60;99.90;;;;;;5053742;28;20198;-68
2022/05/08 07:13:50;;;;;;;3.70;3.60;;;15.00;99.90;;;;;;5053610;28;20229;-67
2022/05/08 07:16:16;;;;;;;3.00;2.90;;;15.30;99.90;;;;;;5051477;28;20167;-67
2022/05/08 07:18:42;;;;;;;6.40;6.17;;;15.60;99.90;;;;;;5053552;28;20191;-67
2022/05/08 07:21:07;;;;;;;5.10;4.80;;;16.20;99.90;;;;;;5051782;28;20190;-67
2022/05/08 07:23:33;;;;;;;3.33;3.23;;;16.30;99.90;;;;;;5053401;28;20183;-67
2022/05/08 07:25:59;;;;;;;4.50;4.30;;;16.40;99.90;;;;;;5053347;28;20224;-67
2022/05/08 07:28:24;;;;;;;6.00;5.80;;;16.80;99.90;;;;;;5053439;28;20206;-67
2022/05/08 07:30:50;;;;;;;9.33;8.93;;;16.90;99.90;;;;;;5048977;28;20220;-67
2022/05/08 07:33:16;;;;;;;7.73;7.43;;;16.90;99.90;;;;;;5051485;28;20175;-66
2022/05/08 07:38:31;;;;;;;4.33;4.13;;;16.30;99.90;;;;;;5053430;28;20234;-68
2022/05/08 07:40:58;;;;;;;4.03;3.83;;;16.00;99.90;;;;;;5052757;28;20175;-65
2022/05/08 07:43:24;;;;;;;3.03;2.93;;;15.90;99.90;;;;;;5052810;28;20178;-66
2022/05/08 07:45:49;;;;;;;3.40;3.30;;;15.90;99.90;;;;;;5053043;28;20203;-66
2022/05/08 07:48:16;;;;;;;3.20;3.10;;;15.80;99.90;;;;;;5052769;28;20625;-65
2022/05/08 07:50:42;;;;;;;3.50;3.40;;;15.90;99.90;;;;;;5052140;28;20170;-67
2022/05/08 07:53:08;;;;;;;9.13;8.73;;;15.90;99.90;;;;;;5051999;28;20190;-65
2022/05/08 07:55:34;;;;;;;4.53;4.27;;;16.00;99.90;;;;;;5052674;28;20171;-66
2022/05/08 07:58:00;;;;;;;4.13;4.00;;;16.60;99.90;;;;;;5050656;28;20224;-66
2022/05/08 08:00:25;;;;;;;5.20;5.00;;;17.10;99.90;;;;;;5052511;28;20182;-66
2022/05/08 08:02:51;;;;;;;5.93;5.73;;;17.20;99.90;;;;;;5052754;28;20175;-66
2022/05/08 08:05:17;;;;;;;5.27;5.00;;;17.20;99.90;;;;;;5052266;28;20255;-66
2022/05/08 08:07:42;;;;;;;3.13;3.03;;;17.00;99.90;;;;;;5052527;28;20265;-66
2022/05/08 08:10:08;;;;;;;3.47;3.37;;;17.20;99.90;;;;;;5050958;28;20198;-65
2022/05/08 08:12:34;;;;;;;4.17;4.00;;;17.60;99.90;;;;;;5052618;28;20203;-65
2022/05/08 08:15:02;;;;;;;4.43;4.23;;;17.80;99.90;;;;;;5052111;28;20190;-66
2022/05/08 08:17:28;;;;;;;3.47;3.37;;;17.50;99.90;;;;;;5043892;28;20266;-66
2022/05/08 08:19:54;;;;;;;3.33;3.23;;;17.30;99.90;;;;;;5052058;28;20290;-67
2022/05/08 08:22:21;;;;;;;6.20;5.80;;;17.60;99.90;;;;;;5052528;28;20174;-66
2022/05/08 08:24:47;;;;;;;3.87;3.67;;;17.80;99.90;;;;;;5052329;28;20173;-66
2022/05/08 08:27:12;;;;;;;4.50;3.97;;;18.20;99.90;;;;;;5052158;28;20627;-66
2022/05/08 08:29:38;;;;;;;3.10;3.00;;;18.10;99.90;;;;;;5052364;28;20202;-66
2022/05/08 08:32:04;;;;;;;5.30;5.10;;;18.00;99.90;;;;;;5051946;28;20203;-66
2022/05/08 08:34:29;;;;;;;3.80;3.70;;;17.60;99.90;;;;;;5051820;28;20660;-67
2022/05/08 08:36:55;;;;;;;4.50;4.30;;;17.60;99.90;;;;;;5051909;28;20257;-67
2022/05/08 08:39:21;;;;;;;3.53;3.43;;;18.00;99.90;;;;;;5051755;28;20672;-66
2022/05/08 08:41:59;;;;;;;3.83;3.73;;;17.70;99.90;;;;;;5051901;28;20225;-66
2022/05/08 08:50:00;;;;;;;4.67;4.47;;;18.60;99.90;;;;;;5051953;28;20197;-67
2022/05/08 08:52:27;;;;;;;3.40;3.20;;;19.20;99.90;;;;;;5053691;28;20689;-67
2022/05/08 08:54:52;;;;;;;4.32;4.13;;;19.50;99.90;;;;;;5071373;28;20166;-66
2022/05/08 08:57:18;;;;;;;2.47;2.38;;;19.90;99.90;;;;;;5071687;28;20181;-67
2022/05/08 08:59:43;;;;;;;2.40;2.30;;;20.20;99.90;;;;;;5071892;28;20243;-68
2022/05/08 09:02:18;;;;;;;2.20;2.10;;;20.80;99.90;;;;;;5055962;28;20228;-67
2022/05/08 09:04:49;;;;;;;2.40;2.30;;;20.20;99.90;;;;;;5051129;28;20180;-66
2022/05/08 09:07:33;;;;;;;3.13;3.00;;;19.90;99.90;;;;;;5051362;28;20636;-66
2022/05/08 09:10:10;;;;;;;8.03;3.37;;;19.90;99.90;;;;;;5052628;28;20256;-68
2022/05/08 09:12:36;;;;;;;2.60;2.50;;;20.20;99.90;;;;;;5051630;28;20686;-67
2022/05/08 09:15:22;;;;;;;2.55;2.45;;;20.20;99.90;;;;;;5051097;28;20187;-67
2022/05/08 09:17:50;;;;;;;2.40;2.30;;;19.90;99.90;;;;;;5048375;28;20342;-67
2022/05/08 09:20:41;;;;;;;2.78;2.67;;;20.30;99.90;;;;;;5050537;28;20652;-67
2022/05/08 09:23:15;;;;;;;2.88;2.78;;;20.60;99.90;;;;;;5051303;28;20177;-67
2022/05/08 09:25:46;;;;;;;2.75;2.65;;;20.50;99.90;;;;;;5050508;28;20179;-67
2022/05/08 09:28:15;;;;;;;2.40;2.30;;;20.70;99.90;;;;;;5051277;28;20159;-67
2022/05/08 09:30:56;;;;;;;2.55;2.45;;;20.80;99.90;;;;;;5051432;28;20200;-68
2022/05/08 09:33:30;;;;;;;2.50;2.40;;;21.10;99.90;;;;;;5050833;28;20175;-69
2022/05/08 09:35:56;;;;;;;2.30;2.20;;;20.90;99.90;;;;;;5050871;28;20181;-68
2022/05/08 09:38:57;;;;;;;2.83;2.65;;;21.10;99.90;;;;;;5051273;28;20668;-70
2022/05/08 09:41:37;;;;;;;2.58;2.47;;;21.10;99.90;;;;;;5031168;28;20182;-66
2022/05/08 09:44:18;;;;;;;2.40;2.30;;;21.30;99.90;;;;;;5033909;28;20246;-67
2022/05/08 09:46:48;;;;;;;2.20;2.10;;;21.50;99.90;;;;;;5051052;28;20171;-67
2022/05/08 09:49:21;;;;;;;2.60;2.42;;;21.50;99.90;;;;;;5049436;28;20285;-67
2022/05/08 09:51:48;;;;;;;2.30;2.20;;;21.30;99.90;;;;;;5046443;28;20199;-67
2022/05/08 09:54:16;;;;;;;2.22;2.13;;;21.00;99.90;;;;;;5049514;28;20171;-66
2022/05/08 09:56:44;;;;;;;2.50;2.40;;;20.90;99.90;;;;;;5052584;28;20651;-66
2022/05/08 09:59:13;;;;;;;2.10;2.00;;;21.20;99.90;;;;;;5054940;28;20214;-66
2022/05/08 10:01:39;;;;;;;2.50;2.40;;;21.50;99.90;;;;;;5055165;28;20163;-66
2022/05/08 10:04:05;;;;;;;2.72;2.53;;;21.40;99.90;;;;;;5053874;28;20711;-67
2022/05/08 10:06:36;;;;;;;2.70;2.60;;;21.60;99.90;;;;;;5054576;28;20249;-67
2022/05/08 10:14:35;;;;;;;2.10;2.00;;;21.30;99.90;;;;;;5054540;28;20178;-67
2022/05/08 10:17:01;;;;;;;2.25;2.15;;;21.10;99.90;;;;;;5054699;28;20178;-67
2022/05/08 10:19:26;;;;;;;2.58;2.47;;;21.00;99.90;;;;;;5054497;28;20198;-67
2022/05/08 10:24:40;;;;;;;2.55;2.45;;;20.90;99.90;;;;;;5053576;28;20183;-67
2022/05/08 10:27:29;;;;;;;2.20;2.10;;;21.20;99.90;;;;;;5054429;28;20536;-66
2022/05/08 10:29:54;;;;;;;2.47;2.38;;;21.80;99.90;;;;;;5054632;28;20278;-67
2022/05/08 10:32:32;;;;;;;2.10;2.00;;;22.00;99.90;;;;;;5053830;28;20355;-67
2022/05/08 10:35:16;;;;;;;2.90;2.70;;;22.40;99.90;;;;;;5054277;28;20193;-67
2022/05/08 10:37:52;;;;;;;2.38;2.28;;;22.90;99.90;;;;;;5054281;28;20179;-68
2022/05/08 10:40:31;;;;;;;2.53;2.42;;;22.90;99.90;;;;;;5054104;28;20210;-67
2022/05/08 10:43:19;;;;;;;2.10;2.00;;;23.20;99.90;;;;;;5054341;28;20183;-68
2022/05/08 10:45:46;;;;;;;2.20;2.10;;;23.10;99.90;;;;;;5054122;28;20228;-67
2022/05/08 10:48:19;;;;;;;2.90;2.72;;;23.40;99.90;;;;;;5053869;28;20175;-67
2022/05/08 10:50:56;;;;;;;2.00;1.90;;;23.20;99.90;;;;;;5054249;28;20655;-67
2022/05/08 10:53:22;;;;;;;2.00;1.90;;;23.40;99.90;;;;;;5054072;28;20162;-67
2022/05/08 10:55:49;;;;;;;2.35;2.25;;;23.40;99.90;;;;;;5053699;28;20249;-68
2022/05/08 10:58:14;;;;;;;2.00;1.90;;;23.50;99.90;;;;;;5053801;28;20170;-68
2022/05/08 11:00:40;;;;;;;2.10;2.00;;;23.90;99.90;;;;;;5053886;28;20171;-68
2022/05/08 11:03:06;;;;;;;2.00;1.90;;;23.90;99.90;;;;;;5053978;28;20182;-68
2022/05/08 11:05:37;;;;;;;2.50;2.35;;;23.70;99.90;;;;;;5053244;28;20176;-68
2022/05/08 11:08:08;;;;;;;2.10;2.00;;;23.50;99.90;;;;;;5046938;28;20233;-67
2022/05/08 11:10:37;;;;;;;2.10;2.00;;;23.40;99.90;;;;;;5052302;28;20236;-68
2022/05/08 11:13:09;;;;;;;2.15;2.05;;;23.50;99.90;;;;;;5034002;28;20452;-68
2022/05/08 11:15:45;;;;;;;3.03;2.20;;;23.90;99.90;;;;;;5033612;28;20171;-68
2022/05/08 11:18:19;;;;;;;4.13;2.40;;;23.90;99.90;;;;;;5051739;28;20201;-67
2022/05/08 11:20:53;;;;;;;2.20;2.10;;;24.30;99.90;;;;;;5052269;28;20178;-69
2022/05/08 11:23:23;;;;;;;2.20;2.10;;;24.20;99.90;;;;;;5033612;28;20225;-69
2022/05/08 11:25:51;;;;;;;2.65;2.47;;;24.20;99.90;;;;;;5033333;28;20172;-68
2022/05/08 11:28:19;;;;;;;2.50;2.40;;;24.10;99.90;;;;;;5053157;28;20185;-67
2022/05/08 11:30:48;;;;;;;2.90;2.70;;;24.20;99.90;;;;;;5053655;28;20171;-68
2022/05/08 11:36:08;;;;;;;2.10;2.00;;;23.40;99.90;;;;;;5052883;28;20182;-68
2022/05/08 11:38:44;;;;;;;2.10;2.00;;;23.50;99.90;;;;;;5051936;28;20648;-68
2022/05/08 11:41:14;;;;;;;2.28;2.10;;;23.60;99.90;;;;;;5052975;28;20186;-68
2022/05/08 11:43:44;;;;;;;2.10;2.00;;;23.50;99.90;;;;;;5053507;28;20185;-67
2022/05/08 11:46:18;;;;;;;2.08;1.98;;;23.40;99.90;;;;;;5052666;28;20270;-67
2022/05/08 11:48:46;;;;;;;2.33;2.22;;;23.40;99.90;;;;;;5053094;28;20564;-68
2022/05/08 11:51:20;;;;;;;2.00;1.90;;;23.70;99.90;;;;;;5051454;28;20194;-68
2022/05/08 11:53:49;;;;;;;2.38;2.28;;;24.00;99.90;;;;;;5052986;28;20193;-67
2022/05/08 11:56:29;;;;;;;2.22;2.13;;;24.00;99.90;;;;;;5052205;28;20178;-68
2022/05/08 11:58:56;;;;;;;2.20;2.10;;;24.40;99.90;;;;;;5051486;28;20198;-68
2022/05/08 12:01:30;;;;;;;3.08;2.35;;;24.70;99.90;;;;;;5052602;28;20171;-67
2022/05/08 12:03:58;;;;;;;2.20;2.10;;;24.80;99.90;;;;;;5052821;28;20692;-68
2022/05/08 12:06:24;;;;;;;2.00;1.90;;;24.80;99.90;;;;;;5050683;28;20191;-67
2022/05/08 12:08:50;;;;;;;2.10;2.00;;;24.60;99.90;;;;;;5052703;28;20221;-68
2022/05/08 12:11:37;;;;;;;2.10;2.00;;;24.50;99.90;;;;;;5052276;28;20564;-67
2022/05/08 12:14:07;;;;;;;2.13;2.03;;;24.40;99.90;;;;;;5051441;28;20185;-67
2022/05/08 12:16:34;;;;;;;2.20;2.10;;;24.40;99.90;;;;;;5050760;28;20205;-67
2022/05/08 12:19:15;;;;;;;2.03;1.92;;;24.50;99.90;;;;;;5052407;28;20667;-68
2022/05/08 12:21:45;;;;;;;2.20;2.10;;;24.80;99.90;;;;;;5052539;28;20190;-68
2022/05/08 12:24:17;;;;;;;2.03;1.92;;;24.60;99.90;;;;;;5052666;28;20258;-69
2022/05/08 12:26:42;;;;;;;2.10;2.00;;;24.50;99.90;;;;;;5051798;28;20187;-68
2022/05/08 12:29:19;;;;;;;2.60;2.50;;;24.10;99.70;;;;;;5052335;28;20656;-69
2022/05/08 12:31:45;;;;;;;2.30;2.20;;;24.20;99.90;;;;;;5052046;28;20250;-68
2022/05/08 12:34:12;;;;;;;2.20;2.10;;;24.50;99.90;;;;;;5052258;28;20253;-66
2022/05/08 12:36:41;;;;;;;3.72;2.70;;;24.80;99.90;;;;;;5050254;28;20707;-68
2022/05/08 12:39:09;;;;;;;2.50;2.30;;;24.40;98.20;;;;;;5050519;28;20210;-68
2022/05/08 12:41:35;;;;;;;2.22;2.13;;;24.50;99.90;;;;;;5052083;28;20174;-68
2022/05/08 12:44:01;;;;;;;2.20;2.10;;;24.50;99.90;;;;;;5052058;28;20182;-68
2022/05/08 12:46:27;;;;;;;2.17;2.08;;;24.30;99.90;;;;;;5051565;28;20202;-68
2022/05/08 12:48:53;;;;;;;2.40;2.30;;;24.00;99.60;;;;;;5050777;28;20593;-66
2022/05/08 12:51:19;;;;;;;3.30;3.10;;;24.00;99.90;;;;;;5051740;28;20187;-66
2022/05/08 12:53:44;;;;;;;2.20;2.10;;;24.00;99.90;;;;;;5051490;28;20288;-68
2022/05/08 12:56:10;;;;;;;3.40;3.20;;;24.10;99.90;;;;;;5062744;28;20188;-68
2022/05/08 13:01:20;;;;;;;2.30;2.20;;;24.50;98.90;;;;;;5063118;28;20316;-66
2022/05/08 13:03:46;;;;;;;2.00;1.90;;;24.40;99.20;;;;;;5053335;28;20253;-69
2022/05/08 13:06:11;;;;;;;2.10;2.00;;;24.90;99.80;;;;;;5052156;28;20279;-68
2022/05/08 13:08:38;;;;;;;2.20;2.10;;;25.10;99.90;;;;;;5051207;28;20191;-68
2022/05/08 13:11:03;;;;;;;2.47;2.38;;;24.80;98.90;;;;;;5066360;28;20197;-67
2022/05/08 13:13:35;;;;;;;2.40;2.30;;;24.50;99.70;;;;;;5068839;28;20174;-68
2022/05/08 13:16:00;;;;;;;2.20;2.10;;;24.60;99.90;;;;;;5053232;28;20246;-69
2022/05/08 13:18:26;;;;;;;3.28;2.30;;;24.50;99.90;;;;;;5051568;28;20270;-67
2022/05/08 13:20:51;;;;;;;2.40;2.30;;;24.40;99.70;;;;;;5050677;28;20644;-68